Terminal Aerodrome Forecast
Issued by NWS Spokane, WA

Home | Current Version | Previous Version | Text Only | Print | Product List | Glossary On
Versions: 1 2 3 4 5 6 7 8 9 10 11 12
000
FTUS46 KOTX 171728
TAFLWS
TAF
KLWS 171728Z 1718/1818 VRB03KT P6SM SKC
     FM171900 31007KT P6SM SKC
     FM180300 15004KT P6SM SKC=

USA.gov is the U.S. government's official web portal to all federal, state and local government web resources and services.